Time;durP1;ratioP1;P1;durP2;ratioP2;P2;SDS_P1;SDS_P2;PMS_P1;PMS_P2;Temp;Humidity;BMP_temperature;BMP_pressure;BME280_temperature;BME280_humidity;BME280_pressure;Samples;Min_cycle;Max_cycle;Signal;HPM_P1;HPM_P2
2022/08/25 00:01:46;;;;;;;6.50;4.30;;;23.00;99.90;;;;;;5051258;28;20730;-65
2022/08/25 00:04:14;;;;;;;4.55;4.10;;;23.00;99.90;;;;;;5051163;28;20175;-65
2022/08/25 00:06:41;;;;;;;5.00;4.60;;;22.90;99.90;;;;;;5051458;28;20537;-66
2022/08/25 00:09:09;;;;;;;4.97;4.50;;;22.80;99.90;;;;;;5051117;28;20195;-64
2022/08/25 00:11:36;;;;;;;5.60;5.13;;;22.70;99.90;;;;;;5051403;28;20224;-64
2022/08/25 00:14:06;;;;;;;5.18;4.88;;;22.60;99.90;;;;;;5051002;28;20571;-66
2022/08/25 00:16:32;;;;;;;5.63;5.22;;;22.60;99.90;;;;;;5051516;28;20232;-66
2022/08/25 00:19:04;;;;;;;6.50;5.60;;;22.50;99.90;;;;;;5051103;28;20191;-66
2022/08/25 00:21:31;;;;;;;4.80;4.40;;;22.40;99.90;;;;;;5051396;28;20259;-64
2022/08/25 00:23:57;;;;;;;5.22;4.35;;;22.40;99.90;;;;;;5050797;28;20179;-63
2022/08/25 00:26:23;;;;;;;4.95;4.57;;;22.30;99.90;;;;;;5051390;28;20179;-65
2022/08/25 00:28:49;;;;;;;5.00;4.60;;;22.30;99.90;;;;;;5051010;28;20537;-66
2022/08/25 00:31:19;;;;;;;5.05;4.28;;;22.30;99.90;;;;;;5051423;28;20179;-63
2022/08/25 00:33:46;;;;;;;4.78;4.38;;;22.20;99.90;;;;;;5050588;28;20233;-67
2022/08/25 00:36:13;;;;;;;4.90;4.50;;;22.10;99.90;;;;;;5051357;28;20235;-64
2022/08/25 00:38:39;;;;;;;4.78;4.38;;;22.10;99.90;;;;;;5050879;28;20203;-64
2022/08/25 00:41:06;;;;;;;5.95;4.80;;;22.00;99.90;;;;;;5051507;28;20583;-65
2022/08/25 00:43:43;;;;;;;5.43;5.03;;;22.00;99.90;;;;;;5050649;28;20183;-66
2022/08/25 00:46:10;;;;;;;5.20;4.80;;;22.00;99.90;;;;;;5051045;28;20170;-64
2022/08/25 00:48:38;;;;;;;4.90;4.60;;;21.90;99.90;;;;;;5050927;28;20585;-64
2022/08/25 00:51:06;;;;;;;6.43;5.85;;;21.90;99.90;;;;;;5050895;28;20178;-65
2022/08/25 00:53:32;;;;;;;6.28;5.85;;;21.80;99.90;;;;;;5050774;28;20171;-65
2022/08/25 00:55:57;;;;;;;5.72;5.22;;;21.80;99.90;;;;;;5050784;28;20175;-64
2022/08/25 00:58:26;;;;;;;5.03;4.57;;;21.70;99.90;;;;;;5051046;28;20218;-65
2022/08/25 01:00:55;;;;;;;5.47;4.80;;;21.60;99.90;;;;;;5050641;28;20249;-65
2022/08/25 01:03:23;;;;;;;4.97;4.55;;;21.60;99.90;;;;;;5050988;28;20183;-65
2022/08/25 01:05:48;;;;;;;5.20;4.72;;;21.60;99.90;;;;;;5049433;28;20731;-64
2022/08/25 01:08:17;;;;;;;5.55;5.05;;;21.60;99.90;;;;;;5051224;28;20277;-64
2022/08/25 01:10:43;;;;;;;7.38;4.82;;;21.60;99.90;;;;;;5050634;28;20183;-66
2022/08/25 01:13:27;;;;;;;6.47;5.97;;;21.60;99.90;;;;;;5054422;28;20174;-66
2022/08/25 01:15:54;;;;;;;8.88;5.93;;;21.60;99.90;;;;;;5054240;28;20174;-66
2022/08/25 01:18:22;;;;;;;6.40;5.90;;;21.60;99.90;;;;;;5055109;28;20752;-65
2022/08/25 01:20:55;;;;;;;6.97;5.85;;;21.60;99.90;;;;;;5054193;28;20206;-66
2022/08/25 01:23:22;;;;;;;6.75;5.32;;;21.50;99.90;;;;;;5054494;28;20171;-64
2022/08/25 01:25:55;;;;;;;6.03;5.43;;;21.50;99.90;;;;;;5053994;28;20572;-66
2022/08/25 01:28:22;;;;;;;5.97;5.68;;;21.40;99.90;;;;;;5054452;28;20199;-66
2022/08/25 01:30:48;;;;;;;6.57;5.93;;;21.40;99.90;;;;;;5054066;28;20189;-64
2022/08/25 01:33:16;;;;;;;5.95;5.55;;;21.30;99.90;;;;;;5054241;28;20175;-63
2022/08/25 01:35:42;;;;;;;5.80;5.30;;;21.30;99.90;;;;;;5053864;28;20232;-64
2022/08/25 01:38:08;;;;;;;7.70;5.47;;;21.20;99.90;;;;;;5054092;28;20230;-65
2022/08/25 01:40:36;;;;;;;5.20;4.90;;;21.10;99.90;;;;;;5053667;28;20355;-64
2022/08/25 01:43:07;;;;;;;6.88;5.95;;;21.00;99.90;;;;;;5054245;28;20170;-65
2022/08/25 01:45:33;;;;;;;5.95;5.45;;;20.90;99.90;;;;;;5053608;28;20197;-64
2022/08/25 01:47:59;;;;;;;8.65;7.95;;;20.90;99.90;;;;;;5053609;28;20566;-65
2022/08/25 01:50:26;;;;;;;5.82;5.32;;;20.80;99.90;;;;;;5053767;28;20205;-65
2022/08/25 01:52:57;;;;;;;5.53;4.63;;;20.80;99.90;;;;;;5053645;28;20269;-66
2022/08/25 01:55:23;;;;;;;15.70;14.80;;;20.70;99.90;;;;;;5053671;28;20175;-66
2022/08/25 01:57:49;;;;;;;5.55;5.25;;;20.70;99.90;;;;;;5051953;28;20225;-64
2022/08/25 02:00:16;;;;;;;5.43;5.07;;;20.70;99.90;;;;;;5053801;28;20687;-66
2022/08/25 02:02:42;;;;;;;6.93;6.35;;;20.60;99.90;;;;;;5053879;28;20175;-67
2022/08/25 02:05:10;;;;;;;8.57;6.70;;;20.60;99.90;;;;;;5053287;28;20557;-66
2022/08/25 02:07:37;;;;;;;8.45;7.75;;;20.50;99.90;;;;;;5053744;28;20194;-65
2022/08/25 02:10:04;;;;;;;6.82;6.43;;;20.50;99.90;;;;;;5053812;28;20542;-65
2022/08/25 02:12:31;;;;;;;7.70;7.20;;;20.50;99.90;;;;;;5053388;28;20199;-67
2022/08/25 02:14:58;;;;;;;8.68;8.07;;;20.40;99.90;;;;;;5053192;28;20201;-66
2022/08/25 02:17:24;;;;;;;5.93;5.53;;;20.30;99.90;;;;;;5053514;28;20252;-65
2022/08/25 02:19:49;;;;;;;6.22;5.72;;;20.30;99.90;;;;;;5052879;28;20214;-67
2022/08/25 02:22:16;;;;;;;8.43;5.55;;;20.30;99.90;;;;;;5053364;28;20179;-66
2022/08/25 02:24:41;;;;;;;5.75;5.28;;;20.20;99.90;;;;;;5052850;28;20207;-66
2022/08/25 02:27:08;;;;;;;5.65;5.18;;;20.20;99.90;;;;;;5053375;28;20252;-67
2022/08/25 02:29:34;;;;;;;6.55;6.05;;;20.20;99.90;;;;;;5053113;28;20218;-66
2022/08/25 02:32:00;;;;;;;6.18;5.68;;;20.20;99.90;;;;;;5053191;28;20174;-67
2022/08/25 02:34:26;;;;;;;7.05;6.55;;;20.20;99.90;;;;;;5052720;28;20214;-67
2022/08/25 02:36:51;;;;;;;6.22;5.72;;;20.20;99.90;;;;;;5053081;28;20551;-67
2022/08/25 02:39:17;;;;;;;6.28;5.88;;;20.20;99.90;;;;;;5052894;28;20197;-66
2022/08/25 02:41:43;;;;;;;5.07;4.77;;;20.20;99.90;;;;;;5052988;28;20206;-67
2022/08/25 02:44:09;;;;;;;6.75;6.20;;;20.20;99.90;;;;;;5052458;28;20179;-67
2022/08/25 02:46:36;;;;;;;5.45;5.05;;;20.30;99.90;;;;;;5052889;28;20640;-66
2022/08/25 02:49:04;;;;;;;4.78;4.40;;;20.30;99.90;;;;;;5052466;28;20227;-65
2022/08/25 02:51:30;;;;;;;5.32;4.93;;;20.30;99.90;;;;;;5052973;28;20174;-66
2022/08/25 02:53:58;;;;;;;5.32;4.82;;;20.40;99.90;;;;;;5052038;28;20252;-67
2022/08/25 02:56:24;;;;;;;7.85;7.38;;;20.50;99.90;;;;;;5052864;28;20178;-67
2022/08/25 02:58:50;;;;;;;6.60;6.00;;;20.50;99.90;;;;;;5052360;28;20289;-67
2022/08/25 03:01:16;;;;;;;5.72;5.32;;;20.50;99.90;;;;;;5052763;28;20658;-66
2022/08/25 03:03:45;;;;;;;6.93;6.40;;;20.50;99.90;;;;;;5051998;28;20247;-67
2022/08/25 03:06:13;;;;;;;7.70;5.80;;;20.50;99.90;;;;;;5052628;28;20167;-67
2022/08/25 03:08:40;;;;;;;5.82;5.53;;;20.50;99.90;;;;;;5052378;28;20206;-65
2022/08/25 03:11:06;;;;;;;5.85;5.45;;;20.50;99.90;;;;;;5052623;28;20186;-67
2022/08/25 03:13:32;;;;;;;7.90;5.75;;;20.40;99.90;;;;;;5051888;28;20187;-67
2022/08/25 03:15:59;;;;;;;6.05;5.65;;;20.30;99.90;;;;;;5052232;28;20261;-64
2022/08/25 03:18:24;;;;;;;5.30;4.68;;;20.30;99.90;;;;;;5052085;28;20215;-64
2022/08/25 03:20:50;;;;;;;5.85;5.22;;;20.40;99.90;;;;;;5052037;28;20214;-65
2022/08/25 03:23:16;;;;;;;4.75;4.45;;;20.40;99.90;;;;;;5052116;28;20182;-64
2022/08/25 03:28:26;;;;;;;5.75;5.25;;;20.30;99.90;;;;;;5052236;28;20225;-64
2022/08/25 03:30:52;;;;;;;7.78;5.18;;;20.30;99.90;;;;;;5052192;28;20652;-65
2022/08/25 03:33:18;;;;;;;6.32;5.05;;;20.20;99.90;;;;;;5051875;28;20187;-65
2022/08/25 03:35:45;;;;;;;5.43;5.03;;;20.20;99.90;;;;;;5051168;28;20183;-64
2022/08/25 03:38:10;;;;;;;5.85;5.45;;;20.10;99.90;;;;;;5050400;28;20240;-66
2022/08/25 03:40:37;;;;;;;6.57;5.57;;;20.10;99.90;;;;;;5051558;28;20202;-66
2022/08/25 03:43:02;;;;;;;5.55;5.05;;;20.10;99.90;;;;;;5051935;28;20175;-66
2022/08/25 03:45:28;;;;;;;5.90;5.50;;;20.00;99.90;;;;;;5051380;28;20561;-65
2022/08/25 03:47:54;;;;;;;6.90;6.30;;;20.00;99.90;;;;;;5051507;28;20264;-66
2022/08/25 03:50:23;;;;;;;4.75;4.38;;;20.00;99.90;;;;;;5051686;28;20551;-65
2022/08/25 03:52:53;;;;;;;6.10;5.30;;;20.00;99.90;;;;;;5051743;28;20530;-67
2022/08/25 03:55:21;;;;;;;5.97;5.43;;;19.80;99.90;;;;;;5051302;28;20240;-66
2022/08/25 03:57:47;;;;;;;6.43;5.72;;;19.80;99.90;;;;;;5051587;28;20202;-66
2022/08/25 04:00:13;;;;;;;5.80;5.22;;;19.70;99.90;;;;;;5051372;28;20206;-65
2022/08/25 04:02:39;;;;;;;5.72;5.28;;;19.60;99.90;;;;;;5051855;28;20277;-67
2022/08/25 04:05:06;;;;;;;5.45;4.72;;;19.60;99.90;;;;;;5051224;28;20710;-66
2022/08/25 04:07:31;;;;;;;4.88;4.47;;;19.40;99.90;;;;;;5051554;28;20222;-66
2022/08/25 04:09:57;;;;;;;6.43;4.87;;;19.30;99.90;;;;;;5051251;28;20217;-65
2022/08/25 04:12:23;;;;;;;7.50;4.70;;;19.20;99.90;;;;;;5051608;28;20221;-67
2022/08/25 04:14:49;;;;;;;6.35;5.70;;;19.20;99.90;;;;;;5050808;28;20220;-66
2022/08/25 04:17:14;;;;;;;6.22;5.72;;;19.10;99.90;;;;;;5051471;28;20668;-66
2022/08/25 04:19:40;;;;;;;5.95;5.45;;;19.10;99.90;;;;;;5051423;28;20182;-66
2022/08/25 04:22:06;;;;;;;9.57;6.55;;;19.10;99.90;;;;;;5051250;28;20183;-66
2022/08/25 04:24:32;;;;;;;7.27;6.73;;;19.10;99.90;;;;;;5051404;28;20659;-66
2022/08/25 04:26:57;;;;;;;6.97;5.17;;;19.00;99.90;;;;;;5050947;28;20220;-67
2022/08/25 04:29:24;;;;;;;8.70;5.83;;;19.00;99.90;;;;;;5051419;28;20171;-65
2022/08/25 04:31:52;;;;;;;6.13;5.67;;;18.90;99.90;;;;;;5050913;28;20202;-67
2022/08/25 04:34:20;;;;;;;6.30;5.80;;;19.00;99.90;;;;;;5051001;28;20167;-66
2022/08/25 04:36:46;;;;;;;9.87;5.77;;;18.90;99.90;;;;;;5050854;28;20198;-65
2022/08/25 04:39:12;;;;;;;6.67;5.40;;;18.90;99.90;;;;;;5051258;28;20202;-67
2022/08/25 04:41:38;;;;;;;7.23;6.53;;;18.90;99.90;;;;;;5050902;28;20210;-66
2022/08/25 04:44:04;;;;;;;7.43;6.80;;;18.90;99.90;;;;;;5050506;28;20187;-65
2022/08/25 04:46:31;;;;;;;6.40;5.90;;;18.90;99.90;;;;;;5051974;28;20202;-64
2022/08/25 04:48:59;;;;;;;6.50;5.97;;;18.90;99.90;;;;;;5055503;28;20214;-66
2022/08/25 04:51:31;;;;;;;6.57;6.13;;;18.90;99.90;;;;;;5055142;28;20178;-66
2022/08/25 04:54:01;;;;;;;6.83;6.33;;;18.90;99.90;;;;;;5054451;28;20175;-66
2022/08/25 04:56:28;;;;;;;7.57;6.97;;;18.90;99.90;;;;;;5055096;28;20178;-67
2022/08/25 04:58:55;;;;;;;6.93;6.43;;;18.90;99.90;;;;;;5055110;28;20774;-67
2022/08/25 05:01:24;;;;;;;6.40;5.83;;;18.90;99.90;;;;;;5054927;28;20210;-66
2022/08/25 05:03:58;;;;;;;7.97;6.47;;;18.90;99.90;;;;;;5054255;28;20214;-65
2022/08/25 05:06:25;;;;;;;6.87;6.17;;;19.00;99.90;;;;;;5055212;28;20575;-67
2022/08/25 05:08:51;;;;;;;6.47;5.70;;;19.00;99.90;;;;;;5054558;28;20286;-66
2022/08/25 05:11:16;;;;;;;8.03;6.37;;;19.10;99.90;;;;;;5055155;28;20607;-65
2022/08/25 05:13:44;;;;;;;12.17;11.53;;;19.00;99.90;;;;;;5054058;28;20233;-67
2022/08/25 05:16:10;;;;;;;8.17;7.47;;;19.10;99.90;;;;;;5054968;28;20709;-66
2022/08/25 05:18:35;;;;;;;7.82;7.22;;;19.20;99.90;;;;;;5054294;28;20289;-67
2022/08/25 05:21:07;;;;;;;11.27;6.80;;;19.20;99.90;;;;;;5054658;28;20293;-66
2022/08/25 05:23:33;;;;;;;6.93;6.33;;;19.30;99.90;;;;;;5054181;28;20194;-65
2022/08/25 05:26:05;;;;;;;6.93;6.37;;;19.40;99.90;;;;;;5054310;28;20178;-64
2022/08/25 05:28:31;;;;;;;6.75;6.20;;;19.50;99.90;;;;;;5054145;28;20269;-65
2022/08/25 05:30:59;;;;;;;7.50;6.93;;;19.60;99.90;;;;;;5054426;28;20178;-65
2022/08/25 05:33:25;;;;;;;10.77;10.18;;;19.70;99.90;;;;;;5053975;28;20183;-67
2022/08/25 05:35:50;;;;;;;5.10;4.47;;;19.80;99.90;;;;;;5054203;28;20552;-67
2022/08/25 05:38:16;;;;;;;5.80;5.30;;;19.90;99.90;;;;;;5054111;28;20194;-66
2022/08/25 05:40:42;;;;;;;7.20;6.50;;;20.00;99.90;;;;;;5054285;28;20210;-67
2022/08/25 05:43:09;;;;;;;6.32;5.80;;;20.10;99.90;;;;;;5054453;28;20269;-66
2022/08/25 05:45:34;;;;;;;6.78;6.13;;;20.20;99.90;;;;;;5053660;28;20186;-67
2022/08/25 05:48:00;;;;;;;7.20;6.50;;;20.30;99.90;;;;;;5053808;28;20558;-66
2022/08/25 05:50:26;;;;;;;6.13;5.10;;;20.30;99.90;;;;;;5053934;28;20187;-66
2022/08/25 05:52:52;;;;;;;5.70;5.20;;;20.40;99.90;;;;;;5053983;28;20175;-66
2022/08/25 05:55:17;;;;;;;5.78;4.90;;;20.50;99.90;;;;;;5053518;28;20711;-67
2022/08/25 05:57:43;;;;;;;6.22;5.20;;;20.60;99.90;;;;;;5053621;28;20248;-67
2022/08/25 06:00:09;;;;;;;6.05;5.55;;;20.60;99.90;;;;;;5053318;28;20672;-65
2022/08/25 06:02:43;;;;;;;9.98;9.27;;;20.70;99.90;;;;;;5053769;28;20185;-64
2022/08/25 06:05:20;;;;;;;5.32;4.82;;;20.80;99.90;;;;;;5052920;28;20171;-64
2022/08/25 06:07:47;;;;;;;5.00;4.50;;;21.00;99.90;;;;;;5050931;28;20725;-65
2022/08/25 06:10:14;;;;;;;4.82;4.43;;;21.20;99.90;;;;;;5053291;28;20220;-64
2022/08/25 06:12:45;;;;;;;4.53;4.10;;;21.50;99.90;;;;;;5053272;28;20593;-64
2022/08/25 06:15:20;;;;;;;5.75;4.22;;;21.80;99.90;;;;;;5048342;28;20175;-65
2022/08/25 06:17:46;;;;;;;7.35;4.82;;;22.30;99.90;;;;;;5053324;28;20190;-64
2022/08/25 06:20:16;;;;;;;5.72;4.38;;;22.80;99.90;;;;;;5053149;28;20198;-66
2022/08/25 06:22:43;;;;;;;5.85;4.93;;;23.30;99.90;;;;;;5053427;28;20167;-67
2022/08/25 06:25:10;;;;;;;6.32;3.97;;;23.80;99.90;;;;;;5053087;28;20174;-65
2022/08/25 06:27:37;;;;;;;4.95;4.18;;;24.30;99.90;;;;;;5053095;28;20187;-65
2022/08/25 06:30:04;;;;;;;9.88;4.25;;;24.80;99.90;;;;;;5052995;28;20684;-65
2022/08/25 06:32:31;;;;;;;5.90;4.45;;;25.10;99.90;;;;;;5051849;28;20190;-65
2022/08/25 06:34:57;;;;;;;4.72;4.32;;;25.40;99.90;;;;;;5052676;28;20195;-65
2022/08/25 06:37:24;;;;;;;9.05;4.90;;;25.70;99.90;;;;;;5051796;28;20304;-65
2022/08/25 06:39:50;;;;;;;15.40;4.72;;;26.00;99.90;;;;;;5052307;28;20193;-65
2022/08/25 06:42:15;;;;;;;6.82;4.70;;;26.40;99.90;;;;;;5052692;28;20175;-65
2022/08/25 06:44:41;;;;;;;7.88;4.72;;;26.60;99.90;;;;;;5036851;28;20228;-66
2022/08/25 06:47:08;;;;;;;4.47;4.07;;;27.00;99.90;;;;;;5052408;28;20542;-66
2022/08/25 06:49:34;;;;;;;4.57;4.28;;;27.30;99.90;;;;;;5052639;28;20185;-66
2022/08/25 06:51:59;;;;;;;6.03;4.40;;;27.70;99.90;;;;;;5052715;28;20162;-65
2022/08/25 06:54:25;;;;;;;7.40;4.30;;;27.90;99.90;;;;;;5052229;28;20174;-65
2022/08/25 06:56:51;;;;;;;5.13;4.22;;;28.20;99.90;;;;;;5052760;28;20781;-64
2022/08/25 06:59:16;;;;;;;10.00;4.60;;;28.30;99.90;;;;;;5052319;28;20186;-64
2022/08/25 07:01:42;;;;;;;5.93;4.45;;;28.30;99.90;;;;;;5052428;28;20221;-63
2022/08/25 07:04:08;;;;;;;4.93;4.35;;;28.20;99.90;;;;;;5051875;28;20177;-65
2022/08/25 07:06:34;;;;;;;5.05;4.53;;;28.20;99.90;;;;;;5051939;28;20198;-64
2022/08/25 07:09:00;;;;;;;6.60;4.80;;;28.10;99.90;;;;;;5051539;28;20190;-64
2022/08/25 07:11:26;;;;;;;4.82;4.45;;;28.10;99.90;;;;;;5052770;28;20178;-65
2022/08/25 07:13:52;;;;;;;4.72;4.32;;;28.20;99.90;;;;;;5051937;28;20501;-64
2022/08/25 07:16:19;;;;;;;5.72;4.68;;;28.40;99.90;;;;;;5052253;28;20182;-65
2022/08/25 07:18:45;;;;;;;4.35;3.95;;;28.50;99.90;;;;;;5051548;28;20210;-65
2022/08/25 07:21:13;;;;;;;5.40;4.88;;;28.50;99.90;;;;;;5051961;28;20289;-67
2022/08/25 07:23:40;;;;;;;4.75;4.38;;;28.60;99.90;;;;;;5051805;28;20198;-66
2022/08/25 07:26:14;;;;;;;5.97;4.82;;;28.70;99.90;;;;;;5051625;28;20548;-65
2022/08/25 07:28:41;;;;;;;4.50;4.10;;;28.90;99.90;;;;;;5051395;28;20281;-65
2022/08/25 07:31:06;;;;;;;5.22;4.75;;;28.90;99.90;;;;;;5051715;28;20612;-67
2022/08/25 07:33:33;;;;;;;5.15;4.00;;;29.00;99.90;;;;;;5051574;28;20178;-66
2022/08/25 07:35:59;;;;;;;4.63;4.05;;;29.00;99.90;;;;;;5051500;28;20194;-64
2022/08/25 07:38:24;;;;;;;7.10;4.47;;;29.20;99.90;;;;;;5051761;28;20607;-66
2022/08/25 07:40:53;;;;;;;5.20;4.68;;;29.40;99.90;;;;;;5052247;28;20202;-67
2022/08/25 07:43:21;;;;;;;5.75;4.00;;;29.70;99.90;;;;;;5051656;28;20162;-65
2022/08/25 07:45:47;;;;;;;6.93;3.75;;;29.70;99.90;;;;;;5051798;28;20228;-67
2022/08/25 07:48:13;;;;;;;4.93;4.20;;;29.70;99.90;;;;;;5051283;28;20214;-67
2022/08/25 07:50:42;;;;;;;4.03;3.80;;;29.70;99.90;;;;;;5051781;28;20179;-67
2022/08/25 07:53:09;;;;;;;7.97;4.32;;;29.80;99.90;;;;;;5051729;28;20626;-66
2022/08/25 07:55:35;;;;;;;4.25;3.83;;;29.90;99.90;;;;;;5051299;28;20190;-66
2022/08/25 07:58:02;;;;;;;4.07;3.60;;;30.10;99.90;;;;;;5051163;28;20202;-67
2022/08/25 08:00:30;;;;;;;4.15;3.85;;;30.20;99.90;;;;;;5051425;28;20199;-66
2022/08/25 08:02:57;;;;;;;6.95;3.72;;;30.40;99.90;;;;;;5051553;28;20167;-67
2022/08/25 08:05:23;;;;;;;4.22;3.92;;;30.60;99.90;;;;;;5050546;28;20171;-67
2022/08/25 08:07:49;;;;;;;5.45;3.60;;;30.60;99.90;;;;;;5051159;28;20195;-67
2022/08/25 08:10:15;;;;;;;4.35;3.72;;;30.70;99.90;;;;;;5051172;28;20179;-63
2022/08/25 08:12:41;;;;;;;4.80;4.28;;;30.80;99.90;;;;;;5051536;28;20662;-63
2022/08/25 08:15:07;;;;;;;5.93;4.10;;;31.00;99.90;;;;;;5050922;28;20293;-63
2022/08/25 08:17:33;;;;;;;4.53;4.13;;;30.80;99.90;;;;;;5051383;28;20199;-63
2022/08/25 08:19:59;;;;;;;5.43;3.95;;;31.00;99.90;;;;;;5050736;28;20635;-63
2022/08/25 08:22:26;;;;;;;5.78;4.10;;;31.40;99.90;;;;;;5051363;28;20177;-63
2022/08/25 08:24:51;;;;;;;4.47;3.70;;;31.60;99.90;;;;;;5050755;28;20265;-64
2022/08/25 08:27:17;;;;;;;5.18;3.53;;;31.80;99.90;;;;;;5051444;28;20613;-64
2022/08/25 08:29:43;;;;;;;4.25;3.88;;;32.00;99.90;;;;;;5051040;28;20185;-64
2022/08/25 08:32:12;;;;;;;4.13;3.70;;;32.20;99.90;;;;;;5051360;28;20162;-64
2022/08/25 08:34:39;;;;;;;4.88;3.72;;;32.40;99.90;;;;;;5049075;28;20202;-65
2022/08/25 08:37:05;;;;;;;9.50;4.20;;;32.50;99.90;;;;;;5033638;28;20180;-64
2022/08/25 08:39:31;;;;;;;4.28;3.85;;;32.70;99.90;;;;;;5050748;28;20194;-65
2022/08/25 08:42:21;;;;;;;8.57;3.60;;;32.90;99.90;;;;;;5050836;28;20249;-64
2022/08/25 08:45:14;;;;;;;4.22;3.90;;;33.00;99.90;;;;;;5050498;28;20175;-65
2022/08/25 08:48:11;;;;;;;4.15;3.75;;;33.10;99.60;;;;;;5050877;28;20717;-64
2022/08/25 08:50:46;;;;;;;4.57;4.13;;;33.10;99.90;;;;;;5050712;28;20186;-65
2022/08/25 08:53:23;;;;;;;7.85;3.90;;;33.30;98.80;;;;;;5051092;28;20542;-64
2022/08/25 08:55:53;;;;;;;4.93;3.50;;;33.40;99.70;;;;;;5050492;28;20224;-64
2022/08/25 08:58:48;;;;;;;5.15;4.70;;;33.60;98.50;;;;;;5045818;28;20286;-63
2022/08/25 09:01:31;;;;;;;5.35;4.13;;;33.80;99.00;;;;;;5031010;28;20631;-64
2022/08/25 09:04:09;;;;;;;5.25;4.60;;;34.20;98.30;;;;;;5033662;28;20210;-65
2022/08/25 09:06:45;;;;;;;4.93;4.43;;;34.20;97.40;;;;;;5050664;28;20218;-64
2022/08/25 09:09:13;;;;;;;3.97;3.58;;;34.30;96.90;;;;;;5050458;28;20218;-65
2022/08/25 09:11:57;;;;;;;4.30;3.65;;;34.50;96.80;;;;;;5050775;28;20175;-65
2022/08/25 09:15:15;;;;;;;6.72;3.85;;;34.60;96.70;;;;;;5050313;28;20205;-66
2022/08/25 09:17:49;;;;;;;5.00;4.50;;;34.80;97.30;;;;;;5038293;28;20211;-65
2022/08/25 09:20:40;;;;;;;6.75;3.95;;;34.90;95.30;;;;;;5050360;28;20659;-65
2022/08/25 09:23:26;;;;;;;3.80;3.50;;;34.90;95.30;;;;;;5050801;28;20167;-64
2022/08/25 09:26:20;;;;;;;6.38;3.70;;;34.20;95.30;;;;;;5050552;28;20179;-64
2022/08/25 09:28:59;;;;;;;3.97;3.65;;;34.30;96.20;;;;;;5050558;28;20186;-64
2022/08/25 09:31:32;;;;;;;7.10;4.30;;;34.30;95.30;;;;;;5050769;28;20178;-64
2022/08/25 09:34:03;;;;;;;3.80;3.47;;;34.40;95.10;;;;;;5053241;28;20651;-64
2022/08/25 09:36:29;;;;;;;5.82;4.43;;;34.10;95.20;;;;;;5054345;28;20193;-65
2022/08/25 09:38:55;;;;;;;6.07;5.05;;;34.30;95.80;;;;;;5053519;28;20199;-65
2022/08/25 09:41:47;;;;;;;4.20;3.40;;;34.50;95.70;;;;;;5053988;28;20202;-64
2022/08/25 09:44:25;;;;;;;6.90;4.03;;;34.90;94.90;;;;;;5053647;28;20175;-65
2022/08/25 09:46:55;;;;;;;4.57;4.18;;;34.70;94.30;;;;;;5034237;28;20171;-65
2022/08/25 09:49:31;;;;;;;4.70;3.83;;;34.70;94.50;;;;;;5034874;28;20203;-64
2022/08/25 09:52:17;;;;;;;5.18;4.13;;;34.90;95.20;;;;;;5052721;28;20658;-66
2022/08/25 09:54:43;;;;;;;3.67;3.30;;;35.40;95.20;;;;;;5053162;28;20178;-66
2022/08/25 09:57:27;;;;;;;7.72;3.60;;;35.50;93.70;;;;;;5053344;28;20186;-66
2022/08/25 09:59:54;;;;;;;3.88;3.55;;;35.60;93.40;;;;;;5051753;28;20723;-66
2022/08/25 10:02:25;;;;;;;4.22;3.80;;;35.60;92.40;;;;;;5053262;28;20632;-66
2022/08/25 10:04:51;;;;;;;3.58;3.28;;;35.70;93.20;;;;;;5053330;28;20187;-66
2022/08/25 10:07:28;;;;;;;6.43;3.50;;;35.90;93.70;;;;;;5053678;28;20695;-65
2022/08/25 10:09:58;;;;;;;3.60;3.30;;;36.00;92.50;;;;;;5053832;28;20182;-65
2022/08/25 10:12:39;;;;;;;3.85;3.42;;;35.90;91.60;;;;;;5053381;28;20182;-66
2022/08/25 10:15:24;;;;;;;4.07;3.72;;;35.90;91.20;;;;;;5053470;28;20751;-66
2022/08/25 10:17:51;;;;;;;5.03;3.40;;;35.40;91.80;;;;;;5053055;28;20195;-64
2022/08/25 10:20:23;;;;;;;3.55;3.25;;;35.40;91.90;;;;;;5053331;28;20580;-65
2022/08/25 10:22:49;;;;;;;3.90;3.60;;;35.60;92.10;;;;;;5053018;28;20194;-65
2022/08/25 10:25:21;;;;;;;4.43;3.20;;;35.90;91.00;;;;;;5053062;28;20167;-63
2022/08/25 10:28:17;;;;;;;3.42;3.20;;;36.10;90.30;;;;;;5052903;28;20190;-65
2022/08/25 10:31:00;;;;;;;6.15;3.65;;;36.10;90.90;;;;;;5053362;28;20179;-66
2022/08/25 10:33:54;;;;;;;3.88;3.50;;;36.50;91.10;;;;;;5052341;28;20178;-63
2022/08/25 10:36:25;;;;;;;3.60;3.30;;;36.50;89.70;;;;;;5053353;28;20200;-66
2022/08/25 10:38:56;;;;;;;3.35;3.05;;;36.80;88.00;;;;;;5052749;28;20585;-66
2022/08/25 10:41:45;;;;;;;3.70;3.40;;;36.80;87.80;;;;;;5053110;28;20526;-66
2022/08/25 10:47:30;;;;;;;3.90;3.60;;;37.10;81.00;;;;;;5053127;28;20244;-64
2022/08/25 10:50:28;;;;;;;3.97;3.67;;;37.00;81.80;;;;;;5052868;28;20166;-64
2022/08/25 10:53:06;;;;;;;5.47;3.17;;;37.30;84.40;;;;;;5052552;28;20654;-66
2022/08/25 10:55:43;;;;;;;3.85;3.03;;;37.50;79.50;;;;;;5052247;28;20174;-64
2022/08/25 10:58:43;;;;;;;2.78;2.55;;;37.40;75.90;;;;;;5052692;28;20191;-64
2022/08/25 11:01:36;;;;;;;3.20;2.90;;;37.00;75.40;;;;;;5043806;28;20210;-64
2022/08/25 11:04:07;;;;;;;3.20;3.00;;;36.90;74.30;;;;;;5052102;28;20174;-65
2022/08/25 11:07:01;;;;;;;5.40;3.00;;;37.00;74.50;;;;;;5052411;28;20227;-66
2022/08/25 11:09:32;;;;;;;3.40;3.15;;;36.90;74.00;;;;;;5052092;28;20194;-65
2022/08/25 11:12:07;;;;;;;3.42;3.20;;;37.00;70.80;;;;;;5052402;28;20198;-66
2022/08/25 11:14:39;;;;;;;3.05;2.75;;;37.20;71.00;;;;;;5051864;28;20178;-66
2022/08/25 11:17:16;;;;;;;3.63;3.33;;;37.30;73.30;;;;;;5052652;28;20171;-65
2022/08/25 11:19:47;;;;;;;3.70;3.40;;;37.50;71.50;;;;;;5052057;28;20457;-66
2022/08/25 11:22:28;;;;;;;3.60;3.40;;;37.40;71.40;;;;;;5052175;28;20644;-65
2022/08/25 11:25:12;;;;;;;5.38;3.25;;;37.30;70.90;;;;;;5051329;28;20183;-65
2022/08/25 11:27:59;;;;;;;3.13;2.92;;;37.50;72.00;;;;;;5051822;28;20199;-66
2022/08/25 11:30:24;;;;;;;4.07;3.40;;;37.30;71.40;;;;;;5052111;28;20170;-66
2022/08/25 11:32:53;;;;;;;4.60;3.03;;;37.40;70.70;;;;;;5051622;28;20183;-65
2022/08/25 11:35:27;;;;;;;8.00;3.47;;;37.70;69.90;;;;;;5051813;28;20654;-66
2022/08/25 11:38:08;;;;;;;3.17;2.92;;;38.00;68.90;;;;;;5051557;28;20305;-65
2022/08/25 11:40:33;;;;;;;3.50;3.20;;;38.10;67.80;;;;;;5051809;28;20202;-64
2022/08/25 11:43:11;;;;;;;4.10;3.25;;;38.00;66.40;;;;;;5051538;28;20174;-64
2022/08/25 11:46:02;;;;;;;2.97;2.78;;;37.80;65.60;;;;;;5051458;28;20166;-64
2022/08/25 11:48:37;;;;;;;3.55;2.92;;;38.10;66.30;;;;;;5051312;28;20202;-64
2022/08/25 11:51:06;;;;;;;4.55;2.95;;;38.50;67.90;;;;;;5052055;28;20578;-64
2022/08/25 11:53:38;;;;;;;3.72;2.63;;;38.90;66.90;;;;;;5051202;28;20210;-65
2022/08/25 11:56:30;;;;;;;5.55;3.08;;;39.10;64.00;;;;;;5051275;28;20172;-65
2022/08/25 11:58:56;;;;;;;3.28;2.97;;;39.30;65.80;;;;;;5051588;28;20204;-65
2022/08/25 12:01:41;;;;;;;3.55;3.10;;;39.90;64.80;;;;;;5051971;28;20202;-65
2022/08/25 12:04:32;;;;;;;3.08;2.72;;;40.20;61.70;;;;;;5051222;28;20191;-64
2022/08/25 12:07:09;;;;;;;3.20;2.90;;;40.30;59.10;;;;;;5051675;28;20556;-64
2022/08/25 12:10:01;;;;;;;3.10;2.80;;;39.80;58.40;;;;;;5051311;28;20175;-65
2022/08/25 12:12:30;;;;;;;2.80;2.60;;;39.70;56.40;;;;;;5041000;28;20243;-64
2022/08/25 12:15:18;;;;;;;3.60;3.05;;;40.10;57.60;;;;;;5050952;28;20175;-64
2022/08/25 12:17:58;;;;;;;3.13;2.92;;;40.50;55.20;;;;;;5051437;28;20660;-65
2022/08/25 12:20:52;;;;;;;3.30;3.00;;;40.70;55.20;;;;;;5050936;28;20244;-66
2022/08/25 12:23:36;;;;;;;3.47;2.88;;;40.40;55.70;;;;;;5051211;28;20171;-66
2022/08/25 12:26:27;;;;;;;3.53;3.15;;;40.00;55.50;;;;;;5031599;28;20656;-64
2022/08/25 12:29:13;;;;;;;4.70;3.30;;;39.80;53.50;;;;;;5015024;28;20214;-64
2022/08/25 12:32:12;;;;;;;3.30;3.00;;;39.80;57.00;;;;;;5031466;28;20171;-66
2022/08/25 12:34:44;;;;;;;3.40;3.10;;;39.90;56.40;;;;;;5042014;28;20186;-66
2022/08/25 12:37:19;;;;;;;5.88;3.22;;;40.00;54.70;;;;;;5051399;28;20167;-66
2022/08/25 12:39:48;;;;;;;4.18;3.40;;;40.10;55.10;;;;;;5051041;28;20174;-65
2022/08/25 12:42:29;;;;;;;3.30;3.00;;;39.90;54.00;;;;;;5051023;28;20182;-64
2022/08/25 12:45:18;;;;;;;3.38;3.08;;;39.50;55.80;;;;;;5050663;28;20548;-63
2022/08/25 12:47:46;;;;;;;3.88;3.40;;;39.40;53.90;;;;;;5050718;28;20297;-63
2022/08/25 12:50:39;;;;;;;3.90;3.60;;;39.20;53.80;;;;;;5051224;28;20256;-64
2022/08/25 12:53:31;;;;;;;3.78;3.40;;;39.30;54.70;;;;;;5037541;28;20180;-63
2022/08/25 12:56:04;;;;;;;3.97;3.30;;;38.90;53.00;;;;;;5031082;28;20533;-65
2022/08/25 12:59:02;;;;;;;4.35;3.20;;;38.90;54.70;;;;;;5046890;28;20198;-64
2022/08/25 13:01:53;;;;;;;3.80;3.50;;;38.50;53.40;;;;;;5050962;28;20198;-66
2022/08/25 13:04:27;;;;;;;5.03;3.60;;;38.40;54.70;;;;;;5030793;28;20176;-65
2022/08/25 13:06:59;;;;;;;3.47;3.17;;;38.70;53.60;;;;;;5032332;28;20634;-65
2022/08/25 13:10:16;;;;;;;3.58;3.33;;;39.30;54.40;;;;;;5055066;28;20258;-65
2022/08/25 13:12:59;;;;;;;3.72;2.85;;;39.60;52.00;;;;;;5040070;28;20191;-65